KGNT/GNT METAR and TAF weather

Enter ICAO airport designator
Station Type Date Time Source
KGNT METAR 2020/07/05 02:35 UTC NOAA

KGNT 050235Z AUTO 32006KT 10SM CLR 23/03 A3023 RMK AO2 T02300025


Station Type Date Time Source
KGNT Decoded METAR 2020/07/05 02:35 UTC NOAA

GRANTS-MILAN MUNICIPAL AIRPORT , NM, United States (KGNT) 35-10N 107-54W 1987M
Jul 04, 2020 - 10:35 PM EDT / 2020.07.05 0235 UTC
Wind: from the NW (320 degrees) at 7 MPH (6 KT):0
Visibility: 10 mile(s):0
Sky conditions: clear
Temperature: 73.4 F (23.0 C)
Dew Point: 36.5 F (2.5 C)
Relative Humidity: 26%
Pressure (altimeter): 30.23 in. Hg (1023 hPa)
ob: KGNT 050235Z AUTO 32006KT 10SM CLR 23/03 A3023 RMK AO2 T02300025
cycle: 2

Station Type Date Time Source
KGNT TAF UTC NOAA

Error!

Example: see airport list